sensor_id;sensor_type;location;lat;lon;timestamp;P1;P2;P0
62981;PMS5003;49075;53.988;27.678;2022-11-20T00:04:18;35.8;34;23.8
62981;PMS5003;49075;53.988;27.678;2022-11-20T00:09:56;36.4;34.2;24.4
62981;PMS5003;49075;53.988;27.678;2022-11-20T00:14:56;38.6;37;25.8
62981;PMS5003;49075;53.988;27.678;2022-11-20T00:19:30;33.6;32.2;23.2
62981;PMS5003;49075;53.988;27.678;2022-11-20T00:24:54;42.8;41.8;29.6
62981;PMS5003;49075;53.988;27.678;2022-11-20T00:29:54;40.8;39;26
62981;PMS5003;49075;53.988;27.678;2022-11-20T00:34:54;41;38.4;27.2
62981;PMS5003;49075;53.988;27.678;2022-11-20T00:39:10;41.8;39;27.6
62981;PMS5003;49075;53.988;27.678;2022-11-20T00:44:44;42.2;40.4;27
62981;PMS5003;49075;53.988;27.678;2022-11-20T00:49:42;36.8;34.8;24.8
62981;PMS5003;49075;53.988;27.678;2022-11-20T00:54:56;31.6;29.8;22.4
62981;PMS5003;49075;53.988;27.678;2022-11-20T00:59:20;37.2;36.2;24.2
62981;PMS5003;49075;53.988;27.678;2022-11-20T01:04:40;33.8;32.8;25.4
62981;PMS5003;49075;53.988;27.678;2022-11-20T01:09:54;33.8;32.6;23.8
62981;PMS5003;49075;53.988;27.678;2022-11-20T01:14:54;30.6;28;22
62981;PMS5003;49075;53.988;27.678;2022-11-20T01:19:23;31.2;30.2;23.2
62981;PMS5003;49075;53.988;27.678;2022-11-20T01:24:42;33.6;33.2;25
62981;PMS5003;49075;53.988;27.678;2022-11-20T01:29:12;34;33.4;26
62981;PMS5003;49075;53.988;27.678;2022-11-20T01:34:22;30.2;29;21.8
62981;PMS5003;49075;53.988;27.678;2022-11-20T01:39:34;34.6;33.8;24.6
62981;PMS5003;49075;53.988;27.678;2022-11-20T01:44:49;36.2;35.6;25.6
62981;PMS5003;49075;53.988;27.678;2022-11-20T01:49:47;36.3;34.3;24.8
62981;PMS5003;49075;53.988;27.678;2022-11-20T01:54:47;37.2;35.4;26.2
62981;PMS5003;49075;53.988;27.678;2022-11-20T01:59:22;31;28.4;23.6
62981;PMS5003;49075;53.988;27.678;2022-11-20T02:05:00;35;34.2;25.2
62981;PMS5003;49075;53.988;27.678;2022-11-20T02:10:00;35.2;33.6;24.6
62981;PMS5003;49075;53.988;27.678;2022-11-20T02:14:32;35.6;34;24.2
62981;PMS5003;49075;53.988;27.678;2022-11-20T02:19:44;26.4;26.4;20.6
62981;PMS5003;49075;53.988;27.678;2022-11-20T02:24:21;33.6;30.4;21.8
62981;PMS5003;49075;53.988;27.678;2022-11-20T02:29:55;30.4;30;22.8
62981;PMS5003;49075;53.988;27.678;2022-11-20T02:34:22;30.2;29.6;20.4
62981;PMS5003;49075;53.988;27.678;2022-11-20T02:39:44;41.4;40.2;28.6
62981;PMS5003;49075;53.988;27.678;2022-11-20T02:44:30;35.2;33.6;25.2
62981;PMS5003;49075;53.988;27.678;2022-11-20T02:49:22;27;25.8;18.8
62981;PMS5003;49075;53.988;27.678;2022-11-20T02:54:22;30.4;29.6;21.8
62981;PMS5003;49075;53.988;27.678;2022-11-20T02:59:44;39.8;39.4;27.6
62981;PMS5003;49075;53.988;27.678;2022-11-20T03:04:44;32.8;32.4;22.4
62981;PMS5003;49075;53.988;27.678;2022-11-20T03:09:44;32.2;31.2;22.4
62981;PMS5003;49075;53.988;27.678;2022-11-20T03:14:34;29.4;28.8;22.2
62981;PMS5003;49075;53.988;27.678;2022-11-20T03:19:58;32.6;31.6;23.4
62981;PMS5003;49075;53.988;27.678;2022-11-20T03:24:58;33;32.6;25.6
62981;PMS5003;49075;53.988;27.678;2022-11-20T03:29:58;29.6;29.2;22
62981;PMS5003;49075;53.988;27.678;2022-11-20T03:34:43;29.4;29.2;21.4
62981;PMS5003;49075;53.988;27.678;2022-11-20T03:39:22;28;26.4;20
62981;PMS5003;49075;53.988;27.678;2022-11-20T03:44:56;30.6;29.4;22.8
62981;PMS5003;49075;53.988;27.678;2022-11-20T03:49:34;33.6;32.4;24.4
62981;PMS5003;49075;53.988;27.678;2022-11-20T03:54:44;27.8;27;20.3
62981;PMS5003;49075;53.988;27.678;2022-11-20T03:59:22;29.4;29;20.4
62981;PMS5003;49075;53.988;27.678;2022-11-20T04:04:22;30.4;28.4;21.2
62981;PMS5003;49075;53.988;27.678;2022-11-20T04:09:32;34.6;34;25
62981;PMS5003;49075;53.988;27.678;2022-11-20T04:14:44;27.8;27.2;21.2
62981;PMS5003;49075;53.988;27.678;2022-11-20T04:19:44;31.2;30.4;23.2
62981;PMS5003;49075;53.988;27.678;2022-11-20T04:24:42;26.2;26;19.8
62981;PMS5003;49075;53.988;27.678;2022-11-20T04:29:58;35;33.8;26.6
62981;PMS5003;49075;53.988;27.678;2022-11-20T04:34:58;34.6;34.2;25
62981;PMS5003;49075;53.988;27.678;2022-11-20T04:39:56;31.6;31;23.2
62981;PMS5003;49075;53.988;27.678;2022-11-20T04:44:30;32;29.4;20.8
62981;PMS5003;49075;53.988;27.678;2022-11-20T04:49:30;31.8;30;22.8
62981;PMS5003;49075;53.988;27.678;2022-11-20T04:54:58;40;39;27.8
62981;PMS5003;49075;53.988;27.678;2022-11-20T04:59:58;45;41.4;28.4
62981;PMS5003;49075;53.988;27.678;2022-11-20T05:04:34;45.4;41.4;28.2
62981;PMS5003;49075;53.988;27.678;2022-11-20T05:09:44;44.8;42.2;30.4
62981;PMS5003;49075;53.988;27.678;2022-11-20T05:14:30;45.8;44;31.4
62981;PMS5003;49075;53.988;27.678;2022-11-20T05:19:22;54.2;48.4;32.6
62981;PMS5003;49075;53.988;27.678;2022-11-20T05:24:22;38;37.4;28.8
62981;PMS5003;49075;53.988;27.678;2022-11-20T05:29:44;45.6;41;29.6
62981;PMS5003;49075;53.988;27.678;2022-11-20T05:34:42;45.8;43.2;31
62981;PMS5003;49075;53.988;27.678;2022-11-20T05:39:44;46.4;44;30.6
62981;PMS5003;49075;53.988;27.678;2022-11-20T05:44:22;49.4;45.6;31.6
62981;PMS5003;49075;53.988;27.678;2022-11-20T05:49:56;57.7;50.7;34.3
62981;PMS5003;49075;53.988;27.678;2022-11-20T05:54:56;45;43.6;32
62981;PMS5003;49075;53.988;27.678;2022-11-20T05:59:30;49.6;45.8;32
62981;PMS5003;49075;53.988;27.678;2022-11-20T06:04:44;51.6;46.4;31.4
62981;PMS5003;49075;53.988;27.678;2022-11-20T06:09:22;59.2;52;36.6
62981;PMS5003;49075;53.988;27.678;2022-11-20T06:14:58;50.6;47.2;33
62981;PMS5003;49075;53.988;27.678;2022-11-20T06:19:34;42;39;27.8
62981;PMS5003;49075;53.988;27.678;2022-11-20T06:24:44;44.5;42.3;28.3
62981;PMS5003;49075;53.988;27.678;2022-11-20T06:29:30;45.8;43.4;29.8
62981;PMS5003;49075;53.988;27.678;2022-11-20T06:34:22;48.8;45.4;32
62981;PMS5003;49075;53.988;27.678;2022-11-20T06:39:22;48;44.8;31.6
62981;PMS5003;49075;53.988;27.678;2022-11-20T06:44:34;41.8;38.8;26.4
62981;PMS5003;49075;53.988;27.678;2022-11-20T06:49:24;43.2;41.6;28
62981;PMS5003;49075;53.988;27.678;2022-11-20T06:54:46;39.4;38.4;28
62981;PMS5003;49075;53.988;27.678;2022-11-20T06:59:32;42.4;40.4;29.6
62981;PMS5003;49075;53.988;27.678;2022-11-20T07:05:00;43;38.8;26.8
62981;PMS5003;49075;53.988;27.678;2022-11-20T07:10:00;48.4;44.2;31
62981;PMS5003;49075;53.988;27.678;2022-11-20T07:15:00;38;37.2;27.4
62981;PMS5003;49075;53.988;27.678;2022-11-20T07:19:46;45.6;42.8;29
62981;PMS5003;49075;53.988;27.678;2022-11-20T07:24:22;42.8;39.6;28.2
62981;PMS5003;49075;53.988;27.678;2022-11-20T07:30:00;43;39.5;28.5
62981;PMS5003;49075;53.988;27.678;2022-11-20T07:34:34;36.8;35.4;25.6
62981;PMS5003;49075;53.988;27.678;2022-11-20T07:40:00;40.6;39;27
62981;PMS5003;49075;53.988;27.678;2022-11-20T07:44:32;49.8;45.6;31.6
62981;PMS5003;49075;53.988;27.678;2022-11-20T07:49:22;40.8;40.6;27.2
62981;PMS5003;49075;53.988;27.678;2022-11-20T07:54:34;44.8;42.2;29.8
62981;PMS5003;49075;53.988;27.678;2022-11-20T07:59:44;35.8;35.6;25.6
62981;PMS5003;49075;53.988;27.678;2022-11-20T08:04:24;38.4;37;26.4
62981;PMS5003;49075;53.988;27.678;2022-11-20T08:09:46;40.4;37.6;27.4
62981;PMS5003;49075;53.988;27.678;2022-11-20T08:14:34;50.8;46.6;33.6
62981;PMS5003;49075;53.988;27.678;2022-11-20T08:19:58;53;48;33.4
62981;PMS5003;49075;53.988;27.678;2022-11-20T08:24:58;41.6;40;30
62981;PMS5003;49075;53.988;27.678;2022-11-20T08:29:30;46;44.3;32.3
62981;PMS5003;49075;53.988;27.678;2022-11-20T08:34:32;46.4;44.6;31.6
62981;PMS5003;49075;53.988;27.678;2022-11-20T08:40:00;43.6;41.6;29.2
62981;PMS5003;49075;53.988;27.678;2022-11-20T08:45:00;48.4;44.4;30
62981;PMS5003;49075;53.988;27.678;2022-11-20T08:49:58;46;43;30.8
62981;PMS5003;49075;53.988;27.678;2022-11-20T08:54:58;45.8;43.4;30.2
62981;PMS5003;49075;53.988;27.678;2022-11-20T08:59:40;40.2;38;27
62981;PMS5003;49075;53.988;27.678;2022-11-20T09:04:56;47.8;44.2;31
62981;PMS5003;49075;53.988;27.678;2022-11-20T09:09:14;39.2;38.2;27
62981;PMS5003;49075;53.988;27.678;2022-11-20T09:14:46;42.8;39.2;26.8
62981;PMS5003;49075;53.988;27.678;2022-11-20T09:19:58;43;41;27.6
62981;PMS5003;49075;53.988;27.678;2022-11-20T09:24:58;37;34.4;24.8
62981;PMS5003;49075;53.988;27.678;2022-11-20T09:29:52;38;33.8;24
62981;PMS5003;49075;53.988;27.678;2022-11-20T09:34:40;46;43.2;28.4
62981;PMS5003;49075;53.988;27.678;2022-11-20T09:39:30;42.2;40.4;27
62981;PMS5003;49075;53.988;27.678;2022-11-20T09:44:48;40.4;39.2;27.4
62981;PMS5003;49075;53.988;27.678;2022-11-20T09:49:32;46;42.2;30.4
62981;PMS5003;49075;53.988;27.678;2022-11-20T09:54:54;42.8;41.6;29.2
62981;PMS5003;49075;53.988;27.678;2022-11-20T09:59:35;42.4;40;27.2
62981;PMS5003;49075;53.988;27.678;2022-11-20T10:04:55;45.2;43.2;30.8
62981;PMS5003;49075;53.988;27.678;2022-11-20T10:09:29;42.8;41.2;29
62981;PMS5003;49075;53.988;27.678;2022-11-20T10:14:59;37.2;35.6;26
62981;PMS5003;49075;53.988;27.678;2022-11-20T10:19:56;42.2;40.4;28
62981;PMS5003;49075;53.988;27.678;2022-11-20T10:24:44;45.6;41.8;28.6
62981;PMS5003;49075;53.988;27.678;2022-11-20T10:29:43;45;41.8;30
62981;PMS5003;49075;53.988;27.678;2022-11-20T10:34:56;41.6;39.8;29.4
62981;PMS5003;49075;53.988;27.678;2022-11-20T10:39:58;46;44;30
62981;PMS5003;49075;53.988;27.678;2022-11-20T10:44:21;37;36.2;25.8
62981;PMS5003;49075;53.988;27.678;2022-11-20T10:49:43;32.8;32.2;23.8
62981;PMS5003;49075;53.988;27.678;2022-11-20T10:54:32;42.4;41;28.8
62981;PMS5003;49075;53.988;27.678;2022-11-20T10:59:49;41;37.8;27.2
62981;PMS5003;49075;53.988;27.678;2022-11-20T11:04:31;42.6;40.6;29.6
62981;PMS5003;49075;53.988;27.678;2022-11-20T11:09:19;47.2;44.2;29.4
62981;PMS5003;49075;53.988;27.678;2022-11-20T11:14:30;42.6;40.8;28.6
62981;PMS5003;49075;53.988;27.678;2022-11-20T11:19:57;43.6;40.4;28.2
62981;PMS5003;49075;53.988;27.678;2022-11-20T11:24:56;49;44.2;30.2
62981;PMS5003;49075;53.988;27.678;2022-11-20T11:30:27;45;42;30.5
62981;PMS5003;49075;53.988;27.678;2022-11-20T11:34:58;47.4;45;31
62981;PMS5003;49075;53.988;27.678;2022-11-20T11:39:44;50.4;45.8;31.6
62981;PMS5003;49075;53.988;27.678;2022-11-20T11:44:45;48.8;44.6;30.2
62981;PMS5003;49075;53.988;27.678;2022-11-20T11:50:28;44.2;41.4;29.8
62981;PMS5003;49075;53.988;27.678;2022-11-20T11:54:59;43.6;41;28.6
62981;PMS5003;49075;53.988;27.678;2022-11-20T11:59:24;45;40.6;28.8
62981;PMS5003;49075;53.988;27.678;2022-11-20T12:04:49;42;40.2;27.8
62981;PMS5003;49075;53.988;27.678;2022-11-20T12:09:11;40.2;38.6;28
62981;PMS5003;49075;53.988;27.678;2022-11-20T12:14:46;43.6;42;29.4
62981;PMS5003;49075;53.988;27.678;2022-11-20T12:19:58;39.6;38.4;27.4
62981;PMS5003;49075;53.988;27.678;2022-11-20T12:24:59;40;39.4;28.8
62981;PMS5003;49075;53.988;27.678;2022-11-20T12:29:37;39.8;38.6;27.4
62981;PMS5003;49075;53.988;27.678;2022-11-20T12:35:00;43.8;40.8;28.3
62981;PMS5003;49075;53.988;27.678;2022-11-20T12:39:34;43.8;40.8;28.6
62981;PMS5003;49075;53.988;27.678;2022-11-20T12:45:02;46.4;42.6;30
62981;PMS5003;49075;53.988;27.678;2022-11-20T12:49:33;40.8;38.8;28.6
62981;PMS5003;49075;53.988;27.678;2022-11-20T12:55:08;43.6;41.2;28.2
62981;PMS5003;49075;53.988;27.678;2022-11-20T12:59:27;40.2;38.4;28.2
62981;PMS5003;49075;53.988;27.678;2022-11-20T13:05:04;40;37.2;25.2
62981;PMS5003;49075;53.988;27.678;2022-11-20T13:09:58;39.4;38;26.2
62981;PMS5003;49075;53.988;27.678;2022-11-20T13:14:26;40.6;39.2;28.4
62981;PMS5003;49075;53.988;27.678;2022-11-20T13:19:56;41.6;38.4;27.2
62981;PMS5003;49075;53.988;27.678;2022-11-20T13:24:49;42.4;40.4;28.4
62981;PMS5003;49075;53.988;27.678;2022-11-20T13:29:45;44.4;42.4;29.4
62981;PMS5003;49075;53.988;27.678;2022-11-20T13:34:28;35.3;35;25.8
62981;PMS5003;49075;53.988;27.678;2022-11-20T13:39:24;39;37.4;27.2
62981;PMS5003;49075;53.988;27.678;2022-11-20T13:44:44;37.2;36.8;27.2
62981;PMS5003;49075;53.988;27.678;2022-11-20T13:49:55;39.4;38;27.4
62981;PMS5003;49075;53.988;27.678;2022-11-20T13:54:30;33.8;32.2;24.4
62981;PMS5003;49075;53.988;27.678;2022-11-20T13:59:56;40.2;37.4;26.8
62981;PMS5003;49075;53.988;27.678;2022-11-20T14:04:22;31.8;31.2;22
62981;PMS5003;49075;53.988;27.678;2022-11-20T14:09:48;35.4;32.8;24
62981;PMS5003;49075;53.988;27.678;2022-11-20T14:14:31;33.8;32.6;25.4
62981;PMS5003;49075;53.988;27.678;2022-11-20T14:19:40;38.2;37.2;26
62981;PMS5003;49075;53.988;27.678;2022-11-20T14:25:00;40.4;39;28.2
62981;PMS5003;49075;53.988;27.678;2022-11-20T14:29:19;36.8;35;26.2
62981;PMS5003;49075;53.988;27.678;2022-11-20T14:34:53;34;32.8;25.8
62981;PMS5003;49075;53.988;27.678;2022-11-20T14:39:41;35;34;24
62981;PMS5003;49075;53.988;27.678;2022-11-20T14:44:44;36.6;35.2;24.6
62981;PMS5003;49075;53.988;27.678;2022-11-20T14:49:29;33;31.4;22.6
62981;PMS5003;49075;53.988;27.678;2022-11-20T14:54:20;43.2;41.8;29
62981;PMS5003;49075;53.988;27.678;2022-11-20T14:59:32;41.2;38.6;27.4
62981;PMS5003;49075;53.988;27.678;2022-11-20T15:04:56;33.2;32.4;24
62981;PMS5003;49075;53.988;27.678;2022-11-20T15:09:18;39.6;38;27.2
62981;PMS5003;49075;53.988;27.678;2022-11-20T15:14:52;32.6;32;24
62981;PMS5003;49075;53.988;27.678;2022-11-20T15:19:54;34.8;34.2;25.8
62981;PMS5003;49075;53.988;27.678;2022-11-20T15:24:42;27.8;27.4;20.8
62981;PMS5003;49075;53.988;27.678;2022-11-20T15:29:11;36.4;34.4;26.2
62981;PMS5003;49075;53.988;27.678;2022-11-20T15:34:40;36.3;35;26.5
62981;PMS5003;49075;53.988;27.678;2022-11-20T15:39:48;36.6;36;25.2
62981;PMS5003;49075;53.988;27.678;2022-11-20T15:44:20;41.6;40;28.8
62981;PMS5003;49075;53.988;27.678;2022-11-20T15:49:54;39.4;38;26.4
62981;PMS5003;49075;53.988;27.678;2022-11-20T15:54:40;43.4;40.8;27.6
62981;PMS5003;49075;53.988;27.678;2022-11-20T15:59:42;45.6;43.6;28.6
62981;PMS5003;49075;53.988;27.678;2022-11-20T16:04:16;38.2;35.8;25.8
62981;PMS5003;49075;53.988;27.678;2022-11-20T16:09:18;37.6;37;27
62981;PMS5003;49075;53.988;27.678;2022-11-20T16:14:29;39.6;38.2;27.8
62981;PMS5003;49075;53.988;27.678;2022-11-20T16:19:52;35.6;34.4;27.2
62981;PMS5003;49075;53.988;27.678;2022-11-20T16:24:19;39.8;38.2;28.2
62981;PMS5003;49075;53.988;27.678;2022-11-20T16:29:52;36.6;34.4;26.2
62981;PMS5003;49075;53.988;27.678;2022-11-20T16:34:33;40.3;39.3;27.5
62981;PMS5003;49075;53.988;27.678;2022-11-20T16:39:41;32.4;31.6;22.2
62981;PMS5003;49075;53.988;27.678;2022-11-20T16:44:30;41;39.2;29.2
62981;PMS5003;49075;53.988;27.678;2022-11-20T16:49:39;37.8;37.2;25.8
62981;PMS5003;49075;53.988;27.678;2022-11-20T16:54:52;39.8;37.8;27.2
62981;PMS5003;49075;53.988;27.678;2022-11-20T16:59:26;35.4;34.6;27.4
62981;PMS5003;49075;53.988;27.678;2022-11-20T17:04:46;36.2;35.2;26.2
62981;PMS5003;49075;53.988;27.678;2022-11-20T17:09:36;35;34.6;25
62981;PMS5003;49075;53.988;27.678;2022-11-20T17:14:42;39.8;36.8;27.4
62981;PMS5003;49075;53.988;27.678;2022-11-20T17:19:18;35.2;33;25
62981;PMS5003;49075;53.988;27.678;2022-11-20T17:24:52;44.6;41.8;28.6
62981;PMS5003;49075;53.988;27.678;2022-11-20T17:29:18;39.2;36.8;26.4
62981;PMS5003;49075;53.988;27.678;2022-11-20T17:34:50;39.8;38.4;27.6
62981;PMS5003;49075;53.988;27.678;2022-11-20T17:39:18;37.5;35.5;25.5
62981;PMS5003;49075;53.988;27.678;2022-11-20T17:44:52;43.8;40;27.6
62981;PMS5003;49075;53.988;27.678;2022-11-20T17:49:30;38.4;37.2;28
62981;PMS5003;49075;53.988;27.678;2022-11-20T17:54:18;40.8;39.4;28.6
62981;PMS5003;49075;53.988;27.678;2022-11-20T17:59:30;37.6;36.2;26.2
62981;PMS5003;49075;53.988;27.678;2022-11-20T18:04:38;38.6;37.4;26.8
62981;PMS5003;49075;53.988;27.678;2022-11-20T18:09:40;40.2;38.2;26.6
62981;PMS5003;49075;53.988;27.678;2022-11-20T18:14:10;45;43;28.8
62981;PMS5003;49075;53.988;27.678;2022-11-20T18:19:21;37.4;36.2;26.6
62981;PMS5003;49075;53.988;27.678;2022-11-20T18:24:52;42;40;27.4
62981;PMS5003;49075;53.988;27.678;2022-11-20T18:29:43;43;41;27.8
62981;PMS5003;49075;53.988;27.678;2022-11-20T18:34:52;47;44;30.2
62981;PMS5003;49075;53.988;27.678;2022-11-20T18:39:52;41.3;40.5;28.3
62981;PMS5003;49075;53.988;27.678;2022-11-20T18:44:19;51.5;47;31.8
62981;PMS5003;49075;53.988;27.678;2022-11-20T18:49:53;45;41.2;28.8
62981;PMS5003;49075;53.988;27.678;2022-11-20T18:54:29;43.8;41.4;28.8
62981;PMS5003;49075;53.988;27.678;2022-11-20T18:59:53;48.4;44.4;30.8
62981;PMS5003;49075;53.988;27.678;2022-11-20T19:04:19;48.4;45;29.6
62981;PMS5003;49075;53.988;27.678;2022-11-20T19:09:28;44.6;41.8;30.2
62981;PMS5003;49075;53.988;27.678;2022-11-20T19:14:28;49.6;46.6;31.6
62981;PMS5003;49075;53.988;27.678;2022-11-20T19:19:31;44.4;42.4;28.2
62981;PMS5003;49075;53.988;27.678;2022-11-20T19:24:40;43.2;41.4;27
62981;PMS5003;49075;53.988;27.678;2022-11-20T19:29:21;54;48.2;32.8
62981;PMS5003;49075;53.988;27.678;2022-11-20T19:34:54;48.2;43.8;31
62981;PMS5003;49075;53.988;27.678;2022-11-20T19:39:52;44.8;39.8;27.5
62981;PMS5003;49075;53.988;27.678;2022-11-20T19:44:42;48;44.4;31
62981;PMS5003;49075;53.988;27.678;2022-11-20T19:49:26;47.6;43.2;29.2
62981;PMS5003;49075;53.988;27.678;2022-11-20T19:54:08;44.6;43;30
62981;PMS5003;49075;53.988;27.678;2022-11-20T19:59:20;42.6;41;28.4
62981;PMS5003;49075;53.988;27.678;2022-11-20T20:04:50;43;41.6;29
62981;PMS5003;49075;53.988;27.678;2022-11-20T20:09:26;49.6;46.2;32
62981;PMS5003;49075;53.988;27.678;2022-11-20T20:14:54;50.6;45.6;31
62981;PMS5003;49075;53.988;27.678;2022-11-20T20:19:18;48.8;45.4;31
62981;PMS5003;49075;53.988;27.678;2022-11-20T20:24:20;44.4;40.8;28.2
62981;PMS5003;49075;53.988;27.678;2022-11-20T20:29:30;41.2;39.2;27.6
62981;PMS5003;49075;53.988;27.678;2022-11-20T20:34:38;42.2;39.4;27.6
62981;PMS5003;49075;53.988;27.678;2022-11-20T20:39:41;44;41;28.5
62981;PMS5003;49075;53.988;27.678;2022-11-20T20:44:18;43;40.8;29.8
62981;PMS5003;49075;53.988;27.678;2022-11-20T20:49:52;36.2;35.4;25.8
62981;PMS5003;49075;53.988;27.678;2022-11-20T20:54:53;43.4;41.6;29.8
62981;PMS5003;49075;53.988;27.678;2022-11-20T20:59:22;40.2;37.6;27.2
62981;PMS5003;49075;53.988;27.678;2022-11-20T21:04:28;40.8;38.4;27.8
62981;PMS5003;49075;53.988;27.678;2022-11-20T21:09:20;45.2;42;28.4
62981;PMS5003;49075;53.988;27.678;2022-11-20T21:14:11;42.4;40.2;28
62981;PMS5003;49075;53.988;27.678;2022-11-20T21:19:52;45.4;42.4;30.4
62981;PMS5003;49075;53.988;27.678;2022-11-20T21:24:41;40.8;40.2;27.6
62981;PMS5003;49075;53.988;27.678;2022-11-20T21:29:54;44.8;41;28.6
62981;PMS5003;49075;53.988;27.678;2022-11-20T21:34:32;41.2;40;29.2
62981;PMS5003;49075;53.988;27.678;2022-11-20T21:39:31;43.2;41.4;30.6
62981;PMS5003;49075;53.988;27.678;2022-11-20T21:44:31;47;43.3;31
62981;PMS5003;49075;53.988;27.678;2022-11-20T21:49:41;45.4;42.2;29.8
62981;PMS5003;49075;53.988;27.678;2022-11-20T21:54:45;37;35.8;27
62981;PMS5003;49075;53.988;27.678;2022-11-20T21:59:17;43.4;41.6;30.4
62981;PMS5003;49075;53.988;27.678;2022-11-20T22:04:31;37.4;35.8;27
62981;PMS5003;49075;53.988;27.678;2022-11-20T22:09:53;39.6;38;27
62981;PMS5003;49075;53.988;27.678;2022-11-20T22:14:53;36.8;35.4;26.8
62981;PMS5003;49075;53.988;27.678;2022-11-20T22:19:25;40.4;38;27.2
62981;PMS5003;49075;53.988;27.678;2022-11-20T22:24:39;40.8;39.8;28
62981;PMS5003;49075;53.988;27.678;2022-11-20T22:29:35;39.6;38.6;27.6
62981;PMS5003;49075;53.988;27.678;2022-11-20T22:34:51;41.8;40.5;30.3
62981;PMS5003;49075;53.988;27.678;2022-11-20T22:39:29;42.8;41.4;29.8
62981;PMS5003;49075;53.988;27.678;2022-11-20T22:44:39;46.6;44;31
62981;PMS5003;49075;53.988;27.678;2022-11-20T22:49:27;44;41.8;30.2
62981;PMS5003;49075;53.988;27.678;2022-11-20T22:54:29;35;34.4;24.4
62981;PMS5003;49075;53.988;27.678;2022-11-20T22:59:17;38.4;37;27.4
62981;PMS5003;49075;53.988;27.678;2022-11-20T23:04:29;45.6;43;30.6
62981;PMS5003;49075;53.988;27.678;2022-11-20T23:09:39;34.4;32.6;25.4
62981;PMS5003;49075;53.988;27.678;2022-11-20T23:14:37;43.8;41;30.4
62981;PMS5003;49075;53.988;27.678;2022-11-20T23:19:41;42.8;42;30.8
62981;PMS5003;49075;53.988;27.678;2022-11-20T23:24:51;44.2;41.8;30.8
62981;PMS5003;49075;53.988;27.678;2022-11-20T23:29:37;43.4;41.8;30.8
62981;PMS5003;49075;53.988;27.678;2022-11-20T23:34:39;37.8;36.8;27.3
62981;PMS5003;49075;53.988;27.678;2022-11-20T23:39:39;48.4;45.4;31.8
62981;PMS5003;49075;53.988;27.678;2022-11-20T23:44:51;37;34.8;26.2
62981;PMS5003;49075;53.988;27.678;2022-11-20T23:49:51;34.8;33.4;24.8
62981;PMS5003;49075;53.988;27.678;2022-11-20T23:54:17;40.4;38.2;26.4
62981;PMS5003;49075;53.988;27.678;2022-11-20T23:59:29;34.8;33.8;26
